Milo, Maine
Current Conditions -  °F | °C
As of 12:53 AM on Friday 28 Nov 2014 (Local Time) from KMLT Reporting Station
Clear Clear  
Wind Chill: 14°   Ceiling: Unl
Heat Index: 14°   Visibility: 10mi
Dew Point: 11°   Wind: 3mph
Humidity: 88%   Direction: 300°WNW
Pressure: 30.02"   Gusts: NA
Location:  45.25°N, 68.98°W
Report Text: KMLT 280553Z AUTO 30003KT 10SM CLR M10/M12 A3002 RMK AO2 SLP179 I1000 I6000 T11001117 11056 21106 50002
Loading
Personal Weather Stations






























Interactive Weather Map New forecast layout! Learn more

10-Day Weather Forecast

Advertisements
Track Severe Weather on mobile